Latest Weather Observations for Barrow Island

IDW60801

Issued at 9:32 pm WST Tuesday 9 February 2016 (issued every 30 minutes, with the page automatically refreshed every 10 minutes)

About weather observations | Map of weather stations | Latest weather observations for WA | Other Formats
Station Details ID: 005094 Name: BARROW ISLAND AIRPORT Lat: -20.88 Lon: 115.41 Height: 6.4 m
Data from the previous 72 hours. | See also: Recent months at Barrow Island
Date/Time
WST
Temp
°C
App
Temp
°C
Dew
Point
Rel
Hum
%
Delta-T
°C
Wind Press
QNH
hPa
Press
MSL
hPa
Rain
since 9 am
mm
Dir
 
Spd
km/h
Gust
km/h
Spd
kts
Gust
kts
09/09:30pm 28.1 31.8 25.1 84 2.1 W 15 17 8 9 1008.9 - 0.0
09/09:00pm 28.6 32.0 25.2 82 2.4 W 17 20 9 11 1008.8 1008.8 0.0
09/08:30pm 28.8 31.8 25.2 81 2.5 W 19 22 10 12 1008.4 - 0.0
09/08:00pm 28.9 31.0 24.7 78 2.9 W 22 28 12 15 1008.1 - 0.0
09/07:30pm 29.3 31.6 25.1 78 2.9 W 22 28 12 15 1007.8 - 0.0
09/07:00pm 30.5 31.4 23.4 66 4.9 W 24 28 13 15 1007.6 - 0.0
09/06:30pm 32.0 32.8 22.4 57 6.6 W 22 30 12 16 1007.2 - 0.0
09/06:00pm 33.4 33.3 21.5 49 8.1 W 24 30 13 16 1006.9 1006.9 0.0
09/05:30pm 34.8 35.1 22.2 48 8.6 WNW 24 28 13 15 1006.7 - 0.0
09/05:00pm 36.2 35.4 20.0 38 10.8 WNW 24 30 13 16 1006.6 - 0.0
09/04:30pm 37.5 37.8 21.6 39 10.9 W 22 28 12 15 1006.6 - 0.0
09/04:00pm 37.4 38.1 22.3 41 10.4 WSW 22 26 12 14 1006.6 - 0.0
09/03:30pm 39.0 37.8 18.3 30 13.6 WSW 22 28 12 15 1006.7 - 0.0
09/03:00pm 39.7 39.3 19.4 30 13.6 WSW 20 26 11 14 1006.9 1006.9 0.0
09/02:30pm 39.9 38.6 17.3 26 14.7 W 20 26 11 14 1007.1 - 0.0
09/02:00pm 38.4 38.7 21.5 37 11.6 WSW 22 28 12 15 1007.4 - 0.0
09/01:30pm 37.4 36.8 19.8 35 11.8 WSW 22 28 12 15 1007.8 - 0.0
09/01:00pm 36.6 37.9 22.7 44 9.6 SW 20 26 11 14 1008.2 - 0.0
09/12:30pm 35.8 36.7 20.1 40 10.5 SSW 15 19 8 10 1008.7 - 0.0
09/12:00pm 33.2 36.9 25.7 64 5.4 SSW 17 19 9 10 1009.1 1009.1 0.0
09/11:30am 31.9 36.0 26.4 72 3.9 SSW 17 20 9 11 1009.4 - 0.0
09/11:00am 31.9 36.5 27.1 76 3.5 SSW 17 20 9 11 1009.5 - 0.0
09/10:30am 31.6 36.5 26.4 74 3.7 SSW 13 17 7 9 1009.9 - 0.0
09/10:00am 30.9 35.8 25.9 74 3.6 SSW 11 17 6 9 1010.1 - 0.0
09/09:30am 30.7 35.7 26.0 76 3.3 S 11 13 6 7 1010.2 - 0.0
09/09:00am 30.4 35.8 25.5 75 3.5 S 7 11 4 6 1010.1 1010.1 0.0
09/08:30am 30.0 35.1 25.5 77 3.2 SSE 9 11 5 6 1010.0 - 0.0
09/08:00am 29.5 34.8 25.0 77 3.2 SE 6 7 3 4 1009.9 - 0.0
09/07:30am 29.3 34.2 25.3 79 2.8 ESE 9 11 5 6 1010.0 - 0.0
09/07:00am 28.5 32.8 25.5 84 2.1 SSW 13 17 7 9 1009.4 - 0.0
09/06:30am 27.6 31.2 25.0 86 1.8 SSW 15 19 8 10 1008.9 - 0.0
09/06:00am 27.4 29.5 24.7 85 1.9 SW 22 28 12 15 1008.6 1008.6 0.0
09/05:30am 27.3 30.3 24.7 86 1.8 SW 17 20 9 11 1008.5 - 0.0
09/05:00am 26.7 30.0 23.8 84 2.0 SW 13 19 7 10 1008.6 - 0.0
09/04:30am 27.4 31.3 24.3 83 2.1 SW 11 13 6 7 1008.4 - 0.0
09/04:00am 27.1 30.9 24.0 83 2.1 SW 11 15 6 8 1008.2 - 0.0
09/03:30am 27.1 30.1 23.3 80 2.6 WSW 13 17 7 9 1008.2 - 0.0
09/03:00am 27.7 30.8 24.1 81 2.5 SW 15 19 8 10 1008.1 1008.1 0.0
09/02:30am 27.7 30.3 23.9 80 2.6 WSW 17 19 9 10 1008.3 - 0.0
09/02:00am 27.8 29.9 23.8 79 2.8 WSW 19 22 10 12 1008.7 - 0.0
09/01:30am 28.1 29.7 23.9 78 2.9 SW 22 28 12 15 1009.2 - 0.0
09/01:00am 27.9 30.3 24.3 81 2.5 SW 19 22 10 12 1009.6 - 0.0
09/12:30am 27.1 30.6 24.2 84 2.0 WSW 13 17 7 9 1009.6 - 0.0
09/12:00am 27.3 30.4 24.2 83 2.1 WSW 15 19 8 10 1009.6 1009.6 0.0
 
Date/Time
WST
Temp
°C
App
Temp
°C
Dew
Point
Rel
Hum
%
Delta-T
°C
Wind Press
QNH
hPa
Press
MSL
hPa
Rain
since 9 am
mm
Dir
 
Spd
km/h
Gust
km/h
Spd
kts
Gust
kts
08/11:30pm 27.4 30.4 24.7 85 1.9 SW 17 20 9 11 1010.0 - 0.0
08/11:00pm 27.8 30.6 25.2 86 1.8 WSW 20 24 11 13 1010.2 - 0.0
08/10:30pm 27.7 30.2 24.7 84 2.1 WSW 20 26 11 14 1010.2 - 0.0
08/10:00pm 27.7 30.7 24.7 84 2.1 WSW 17 20 9 11 1010.1 - 0.0
08/09:30pm 27.8 31.2 24.6 83 2.2 WSW 15 17 8 9 1010.0 - 0.0
08/09:00pm 28.0 31.4 24.6 82 2.4 WSW 15 19 8 10 1009.6 1009.6 0.0
08/08:30pm 28.1 30.6 24.5 81 2.5 WSW 19 24 10 13 1009.4 - 0.0
08/08:00pm 28.4 30.8 24.6 80 2.6 WSW 20 26 11 14 1008.9 - 0.0
08/07:30pm 28.7 30.7 24.5 78 2.9 W 22 26 12 14 1008.5 - 0.0
08/07:00pm 29.4 29.8 23.1 69 4.3 W 26 30 14 16 1007.9 - 0.0
08/06:30pm 30.7 30.2 21.5 58 6.2 WNW 26 30 14 16 1007.5 - 0.0
08/06:00pm 32.1 31.0 21.0 52 7.5 W 28 33 15 18 1007.3 1007.3 0.0
08/05:30pm 33.3 32.3 20.4 46 8.6 WNW 26 33 14 18 1007.1 - 0.0
08/05:00pm 34.3 32.8 19.5 41 9.8 WNW 26 32 14 17 1007.0 - 0.0
08/04:30pm 33.6 33.4 22.1 51 7.9 W 26 32 14 17 1007.1 - 0.0
08/04:00pm 35.1 33.8 19.9 41 10.1 W 26 32 14 17 1007.2 - 0.0
08/03:30pm 34.9 34.4 22.2 47 8.7 W 28 35 15 19 1007.4 - 0.0
08/03:00pm 34.4 34.8 23.1 51 7.8 W 26 32 14 17 1007.7 1007.7 0.0
08/02:30pm 34.4 34.8 23.1 51 7.8 W 26 32 14 17 1007.9 - 0.0
08/02:00pm 34.3 34.8 23.9 54 7.3 W 28 33 15 18 1008.1 - 0.0
08/01:30pm 34.1 34.5 22.5 50 8.0 W 24 32 13 17 1008.3 - 0.0
08/01:00pm 33.1 33.7 22.8 54 7.1 W 24 32 13 17 1008.6 - 0.0
08/12:30pm 32.7 33.6 23.9 60 6.1 WSW 26 33 14 18 1009.1 - 0.0
08/12:00pm 32.5 34.1 24.5 62 5.6 WSW 24 30 13 16 1009.5 1009.5 0.0
08/11:30am 32.6 34.0 23.5 58 6.3 WSW 22 32 12 17 1009.7 - 0.0
08/11:00am 32.6 33.6 22.1 54 7.2 WSW 20 28 11 15 1010.2 - 0.0
08/10:30am 33.1 34.8 24.0 59 6.4 WSW 22 30 12 16 1010.3 - 0.0
08/10:00am 33.2 36.2 25.2 63 5.7 S 19 24 10 13 1010.2 - 0.0
08/09:30am 33.8 36.8 21.9 49 8.1 S 9 15 5 8 1010.0 - 0.0
08/09:00am 32.9 34.8 19.0 43 9.1 ESE 7 9 4 5 1010.0 1010.0 0.0
08/08:30am 31.9 34.1 19.2 47 8.3 E 6 9 3 5 1009.9 - 0.0
08/08:00am 29.6 34.4 24.5 74 3.6 SSW 7 9 4 5 1009.5 - 0.0
08/07:30am 28.7 34.1 25.5 83 2.3 S 7 11 4 6 1009.4 - 0.0
08/07:00am 27.1 33.1 24.9 88 1.5 W 2 7 1 4 1009.3 - 0.0
08/06:30am 26.4 30.1 24.6 90 1.2 WSW 13 15 7 8 1008.8 - 0.0
08/06:00am 26.0 29.1 24.2 90 1.2 WSW 15 19 8 10 1008.7 1008.7 0.0
08/05:30am 25.7 29.4 23.9 90 1.2 WSW 11 13 6 7 1008.8 - 0.0
08/05:00am 25.7 29.0 23.9 90 1.2 WSW 13 15 7 8 1008.8 - 0.0
08/04:30am 25.2 27.9 23.4 90 1.2 W 15 17 8 9 1008.8 - 0.0
08/04:00am 25.1 27.6 23.2 89 1.3 WNW 15 17 8 9 1009.0 - 0.0
08/03:30am 25.2 28.4 23.1 88 1.4 WNW 11 13 6 7 1009.2 - 0.0
08/03:00am 25.9 29.3 23.4 86 1.7 W 11 13 6 7 1009.5 1009.5 0.0
08/02:30am 26.6 29.8 23.7 84 2.0 WSW 13 15 7 8 1009.5 - 0.0
08/02:00am 27.4 29.6 24.0 82 2.3 SW 19 22 10 12 1009.7 - 0.0
08/01:30am 27.6 29.4 24.2 82 2.4 SW 22 24 12 13 1010.1 - 0.0
08/01:00am 27.3 30.2 24.4 84 2.0 SW 17 20 9 11 1010.7 - 0.0
08/12:30am 27.3 29.8 24.7 86 1.8 WSW 20 24 11 13 1010.6 - 0.0
08/12:00am 27.4 30.1 25.0 87 1.7 WSW 20 24 11 13 1010.7 1010.7 0.0
 
Date/Time
WST
Temp
°C
App
Temp
°C
Dew
Point
Rel
Hum
%
Delta-T
°C
Wind Press
QNH
hPa
Press
MSL
hPa
Rain
since 9 am
mm
Dir
 
Spd
km/h
Gust
km/h
Spd
kts
Gust
kts
07/11:30pm 27.3 29.9 24.9 87 1.7 WSW 20 24 11 13 1010.7 - 0.0
07/11:00pm 27.1 30.1 24.7 87 1.7 W 17 20 9 11 1010.8 - 0.0
07/10:30pm 27.2 29.9 24.8 87 1.7 W 19 24 10 13 1010.8 - 0.0
07/10:00pm 27.4 30.1 24.8 86 1.8 W 19 24 10 13 1010.7 - 0.0
07/09:30pm 27.6 29.9 25.0 86 1.8 W 22 26 12 14 1010.4 - 0.0
07/09:00pm 27.6 29.8 24.8 85 2.0 W 22 30 12 16 1010.0 1010.0 0.0
07/08:30pm 27.8 30.9 24.8 84 2.1 W 17 24 9 13 1009.6 - 0.0
07/08:00pm 28.0 30.6 24.6 82 2.4 W 19 26 10 14 1009.2 - 0.0
07/07:30pm 28.3 30.0 24.7 81 2.5 WNW 24 28 13 15 1008.7 - 0.0
07/07:00pm 29.0 30.5 24.3 76 3.3 WNW 24 30 13 16 1008.4 - 0.0
07/06:30pm 30.1 30.2 24.0 70 4.2 WNW 30 35 16 19 1007.9 - 0.0
07/06:00pm 31.5 30.6 22.2 57 6.3 WNW 30 35 16 19 1007.5 1007.5 0.0
07/05:30pm 32.6 31.0 20.8 49 7.9 WNW 30 33 16 18 1007.2 - 0.0
07/05:00pm 33.5 31.3 19.6 44 9.2 WNW 30 35 16 19 1007.0 - 0.0
07/04:30pm 34.6 32.4 18.6 38 10.5 WNW 28 35 15 19 1006.9 - 0.0
07/04:00pm 35.8 33.1 15.5 29 12.8 WNW 24 32 13 17 1007.2 - 0.0
07/03:30pm 36.6 34.5 16.2 29 13.0 W 22 32 12 17 1007.4 - 0.0
07/03:00pm 36.2 34.4 16.9 32 12.4 NW 22 32 12 17 1007.7 1007.7 0.0
07/02:30pm 33.7 36.8 22.1 50 7.9 E 9 13 5 7 1007.9 - 0.0
07/02:00pm 32.3 34.9 24.6 64 5.4 E 19 22 10 12 1008.3 - 0.0
07/01:30pm 32.2 34.4 24.3 63 5.5 ESE 20 30 11 16 1008.5 - 0.0
07/01:00pm 35.3 37.1 21.9 45 9.2 S 15 22 8 12 1008.6 - 0.0
07/12:30pm 33.2 36.1 24.4 60 6.2 S 17 22 9 12 1008.9 - 0.0
07/12:00pm 32.0 34.7 24.1 63 5.5 S 17 19 9 10 1009.1 1009.1 0.0
07/11:30am 31.7 35.2 24.8 67 4.9 S 15 17 8 9 1009.4 - 0.0
07/11:00am 31.3 34.9 24.4 66 4.8 SSE 13 13 7 7 1009.6 - 0.0
07/10:30am 30.7 34.8 24.6 70 4.3 SE 11 13 6 7 1009.8 - 0.0
07/10:00am 31.5 35.2 23.9 64 5.3 SSE 11 13 6 7 1009.7 - 0.0
07/09:30am 31.2 33.7 22.5 60 5.9 S 13 17 7 9 1009.7 - 0.0
07/09:00am 30.5 31.8 21.6 59 6.0 S 17 19 9 10 1009.6 1009.6 0.0
07/08:30am 30.9 34.6 22.5 61 5.7 SSE 7 11 4 6 1009.3 - 0.0
07/08:00am 29.9 33.2 22.6 65 5.0 W 9 13 5 7 1008.9 - 0.0
07/07:30am 27.5 31.9 24.5 84 2.1 WNW 9 11 5 6 1008.5 - 0.0
07/07:00am 26.4 31.3 24.6 90 1.2 NNE 7 9 4 5 1008.4 - 0.0
07/06:30am 25.6 29.4 24.0 91 1.1 WNW 11 13 6 7 1007.8 - 0.0
07/06:00am 25.3 28.5 23.7 91 1.1 NW 13 15 7 8 1007.5 1007.5 0.0
07/05:30am 25.3 28.0 23.5 90 1.2 NW 15 17 8 9 1007.3 - 0.0
07/05:00am 25.5 28.7 23.7 90 1.2 NW 13 17 7 9 1007.2 - 0.0
07/04:30am 25.3 28.8 23.5 90 1.2 NNW 11 13 6 7 1007.2 - 0.0
07/04:00am 25.4 28.9 23.6 90 1.2 NNW 11 15 6 8 1007.1 - 0.0
07/03:30am 25.4 29.2 23.5 89 1.3 NNW 9 13 5 7 1007.2 - 0.0
07/03:00am 25.3 29.1 23.4 89 1.3 NNW 9 11 5 6 1007.2 1007.2 0.0
07/02:30am 25.2 28.4 23.1 88 1.4 NNW 11 13 6 7 1007.2 - 0.0
07/02:00am 25.3 28.9 23.0 87 1.6 NNW 9 11 5 6 1007.4 - 0.0
07/01:30am 25.8 29.5 23.3 86 1.7 NW 9 13 5 7 1007.9 - 0.0
07/01:00am 26.3 29.8 23.6 85 1.8 WSW 11 15 6 8 1008.1 - 0.0
07/12:30am 26.8 29.7 23.9 84 2.0 WSW 15 17 8 9 1008.4 - 0.0
07/12:00am 27.0 30.6 24.3 85 1.9 WSW 13 17 7 9 1008.7 1008.7 0.0
 
Date/Time
WST
Temp
°C
App
Temp
°C
Dew
Point
Rel
Hum
%
Delta-T
°C
Wind Press
QNH
hPa
Press
MSL
hPa
Rain
since 9 am
mm
Dir
 
Spd
km/h
Gust
km/h
Spd
kts
Gust
kts
06/11:30pm 26.7 30.0 23.8 84 2.0 W 13 15 7 8 1008.8 - 0.0
06/11:00pm 26.9 29.9 24.0 84 2.0 W 15 19 8 10 1008.9 - 0.0
06/10:30pm 27.0 29.6 23.9 83 2.1 W 17 20 9 11 1008.7 - 0.0
06/10:00pm 27.0 29.9 23.9 83 2.1 W 15 20 8 11 1008.4 - 0.0

Other Formats:

Comma delimited format used in spreadsheet applications
http://www.bom.gov.au/fwo/IDW60801/IDW60801.95304.axf

JavaScript Object Notation format (JSON) in row-major order
http://www.bom.gov.au/fwo/IDW60801/IDW60801.95304.json